Terminal Aerodrome Forecast
Issued by NWS Spokane, WA

Home | Current Version | Previous Version | Text Only | Print | Product List | Glossary On
Versions: 1 2 3 4 5 6 7 8 9 10 11 12 13 14 15 16 17 18 19 20 21 22 23 24 25 26 27 28 29 30 31
000
FTUS46 KOTX 242320
TAFGEG
TAF
KGEG 242320Z 2500/2524 23018G23KT P6SM SCT050 BKN060
     FM250300 23010KT P6SM SCT060
     FM250600 20008KT P6SM SKC
     FM252000 24012G18KT P6SM FEW060=

USA.gov is the U.S. government's official web portal to all federal, state and local government web resources and services.